Almere Stad, Netherlands
Current Conditions -  °F | °C
As of 5:25 AM on Tuesday 21 Oct 2014 (Local Time) from EHAM Reporting Station
Scattered Clouds Scattered Clouds  
Wind Chill: 55°   Ceiling: Unl
Heat Index: 55°   Visibility: 6mi
Dew Point: 54°   Wind: 16mph
Humidity: 94%   Direction: 200°SSW
Pressure: 29.74"   Gusts: NA
Location:  52.37°N, 5.21°E
Report Text: EHAM 210325Z 20014KT 9999 FEW016 SCT022 13/12 Q1007 TEMPO 7000-SHRA BKN012
Loading
Personal Weather Stations






























Interactive Weather Map
Tropical Storm Tracking
New forecast layout! Learn more

10-Day Weather Forecast

Advertisements
Track Severe Weather on mobile